Time;durP1;ratioP1;P1;durP2;ratioP2;P2;SDS_P1;SDS_P2;PMS_P1;PMS_P2;Temp;Humidity;BMP_temperature;BMP_pressure;BME280_temperature;BME280_humidity;BME280_pressure;Samples;Min_cycle;Max_cycle;Signal;HPM_P1;HPM_P2
2021/01/28 00:00:44;;;;;;;22.08;11.10;;;7.60;99.90;;;;;;5005208;28;20076;-72
2021/01/28 00:03:12;;;;;;;22.77;11.57;;;7.60;99.90;;;;;;5011355;28;20099;-71
2021/01/28 00:05:39;;;;;;;23.35;11.43;;;7.50;99.90;;;;;;5010242;28;20423;-72
2021/01/28 00:08:06;;;;;;;20.10;10.25;;;7.50;99.90;;;;;;5013271;28;20448;-73
2021/01/28 00:10:32;;;;;;;23.38;12.27;;;7.60;99.90;;;;;;5012421;28;20053;-73
2021/01/28 00:12:59;;;;;;;23.52;12.20;;;7.60;99.90;;;;;;5011893;28;20044;-73
2021/01/28 00:15:29;;;;;;;21.65;11.48;;;7.50;99.90;;;;;;5011620;28;20045;-72
2021/01/28 00:17:56;;;;;;;26.30;12.88;;;7.50;99.90;;;;;;5011674;28;20026;-73
2021/01/28 00:20:23;;;;;;;22.77;12.10;;;7.50;99.90;;;;;;5011350;28;20030;-72
2021/01/28 00:22:54;;;;;;;24.47;12.07;;;7.60;99.90;;;;;;5028547;28;20445;-73
2021/01/28 00:25:21;;;;;;;22.65;12.10;;;7.60;99.90;;;;;;5011886;28;20038;-73
2021/01/28 00:27:48;;;;;;;25.87;13.60;;;7.60;99.90;;;;;;5011637;28;20479;-73
2021/01/28 00:30:20;;;;;;;27.50;13.55;;;7.50;99.90;;;;;;5026721;28;20731;-72
2021/01/28 00:32:47;;;;;;;25.52;12.43;;;7.40;99.90;;;;;;5026866;28;20073;-72
2021/01/28 00:35:16;;;;;;;25.70;13.20;;;7.50;99.90;;;;;;5011633;28;20084;-71
2021/01/28 00:37:42;;;;;;;28.17;13.65;;;7.60;99.90;;;;;;5028403;28;20056;-72
2021/01/28 00:40:08;;;;;;;26.33;13.23;;;7.40;99.90;;;;;;5010076;28;20042;-72
2021/01/28 00:42:34;;;;;;;25.60;12.55;;;7.60;99.90;;;;;;5011301;28;20030;-71
2021/01/28 00:45:00;;;;;;;29.45;14.85;;;7.60;99.90;;;;;;5011567;28;20363;-70
2021/01/28 00:47:25;;;;;;;25.52;13.23;;;7.60;99.90;;;;;;5011658;28;20364;-71
2021/01/28 00:49:51;;;;;;;30.13;15.07;;;7.60;99.90;;;;;;5013067;28;20096;-71
2021/01/28 00:52:17;;;;;;;29.40;13.38;;;7.50;99.90;;;;;;5026722;28;20095;-71
2021/01/28 00:54:42;;;;;;;31.55;14.25;;;7.40;99.90;;;;;;5011294;28;20042;-72
2021/01/28 00:57:08;;;;;;;26.70;13.35;;;7.40;99.90;;;;;;5011222;28;20469;-72
2021/01/28 00:59:34;;;;;;;27.13;14.15;;;7.50;99.90;;;;;;5010098;28;20046;-72
2021/01/28 01:01:59;;;;;;;31.25;14.73;;;7.50;99.90;;;;;;5028347;28;20026;-73
2021/01/28 01:04:25;;;;;;;29.10;14.73;;;7.50;99.90;;;;;;5011484;28;20046;-73
2021/01/28 01:06:56;;;;;;;30.13;14.60;;;7.50;99.90;;;;;;5026599;28;20046;-72
2021/01/28 01:09:24;;;;;;;29.77;14.65;;;7.50;99.90;;;;;;5011522;28;20030;-72
2021/01/28 01:11:50;;;;;;;31.90;15.90;;;7.50;99.90;;;;;;5011293;28;20064;-71
2021/01/28 01:14:15;;;;;;;30.48;14.50;;;7.60;99.90;;;;;;5026683;28;20022;-71
2021/01/28 01:16:41;;;;;;;30.45;15.13;;;7.50;99.90;;;;;;5015665;28;20027;-71
2021/01/28 01:19:08;;;;;;;29.00;14.40;;;7.50;99.90;;;;;;5014283;28;20050;-71
2021/01/28 01:21:33;;;;;;;28.30;13.88;;;7.60;99.90;;;;;;5030034;28;20042;-71
2021/01/28 01:23:59;;;;;;;29.45;14.90;;;7.70;99.90;;;;;;5029956;28;20030;-72
2021/01/28 01:26:24;;;;;;;30.52;13.80;;;7.70;99.90;;;;;;5014715;28;20045;-72
2021/01/28 01:28:50;;;;;;;28.90;15.05;;;7.80;99.90;;;;;;5031465;28;20034;-71
2021/01/28 01:31:16;;;;;;;30.85;15.05;;;7.70;99.90;;;;;;5014476;28;20427;-72
2021/01/28 01:33:41;;;;;;;33.33;14.48;;;7.60;99.90;;;;;;5029453;28;20030;-72
2021/01/28 01:36:07;;;;;;;31.60;16.23;;;7.50;99.90;;;;;;5014418;28;20041;-71
2021/01/28 01:38:32;;;;;;;31.48;14.57;;;7.50;99.90;;;;;;5013940;28;20490;-72
2021/01/28 01:40:58;;;;;;;27.77;14.32;;;7.60;99.90;;;;;;5015908;28;20037;-72
2021/01/28 01:43:26;;;;;;;31.77;15.07;;;7.60;99.90;;;;;;5014267;28;20356;-71
2021/01/28 01:46:05;;;;;;;32.10;15.05;;;7.60;99.90;;;;;;5014183;28;20523;-71
2021/01/28 01:48:39;;;;;;;31.17;14.95;;;7.70;99.90;;;;;;5013823;28;20124;-70
2021/01/28 01:51:17;;;;;;;31.42;14.90;;;7.70;99.90;;;;;;5028500;28;20018;-71
2021/01/28 01:53:51;;;;;;;29.48;14.02;;;7.70;99.90;;;;;;5014003;28;20382;-72
2021/01/28 01:56:21;;;;;;;32.08;15.05;;;7.80;99.90;;;;;;5014091;28;20033;-71
2021/01/28 01:58:55;;;;;;;33.47;15.50;;;7.90;99.90;;;;;;5015393;28;20079;-72
2021/01/28 02:01:24;;;;;;;32.88;15.10;;;7.80;99.90;;;;;;5013791;28;20025;-72
2021/01/28 02:03:53;;;;;;;25.95;13.90;;;7.80;99.90;;;;;;5013814;28;20030;-72
2021/01/28 02:06:30;;;;;;;27.73;13.50;;;7.70;99.90;;;;;;5013638;28;20101;-72
2021/01/28 02:08:57;;;;;;;27.40;13.85;;;7.60;99.90;;;;;;5013623;28;20038;-72
2021/01/28 02:11:25;;;;;;;30.23;14.70;;;7.60;99.90;;;;;;5013323;28;20345;-73
2021/01/28 02:13:53;;;;;;;28.42;14.20;;;7.70;99.90;;;;;;5030776;28;20029;-71
2021/01/28 02:16:22;;;;;;;28.05;13.43;;;7.50;99.90;;;;;;5029122;28;20522;-71
2021/01/28 02:18:48;;;;;;;29.20;14.18;;;7.50;99.90;;;;;;5028923;28;20044;-71
2021/01/28 02:21:20;;;;;;;31.08;14.05;;;7.60;99.90;;;;;;5013473;28;20026;-72
2021/01/28 02:23:45;;;;;;;25.13;12.85;;;7.60;99.90;;;;;;5013218;28;20405;-70
2021/01/28 02:26:11;;;;;;;28.50;12.73;;;7.60;99.90;;;;;;5013052;28;20076;-72
2021/01/28 02:28:37;;;;;;;27.15;12.60;;;7.60;99.90;;;;;;5015018;28;20061;-72
2021/01/28 02:31:04;;;;;;;23.77;12.25;;;7.70;99.90;;;;;;5013291;28;20046;-71
2021/01/28 02:33:53;;;;;;;29.53;13.33;;;7.70;99.90;;;;;;5013437;28;20038;-72
2021/01/28 02:36:26;;;;;;;29.30;13.82;;;7.70;99.90;;;;;;5013359;28;20036;-70
2021/01/28 02:38:52;;;;;;;28.42;13.55;;;7.50;99.90;;;;;;5013080;28;20148;-73
2021/01/28 02:41:17;;;;;;;25.63;12.15;;;7.60;99.90;;;;;;5012975;28;20101;-72
2021/01/28 02:43:43;;;;;;;31.40;13.80;;;7.50;99.90;;;;;;5014682;28;20360;-72
2021/01/28 02:46:13;;;;;;;25.10;12.25;;;7.40;99.90;;;;;;5028499;28;20037;-72
2021/01/28 02:48:38;;;;;;;27.75;12.38;;;7.30;99.90;;;;;;5015967;28;20045;-71
2021/01/28 02:51:06;;;;;;;24.67;12.60;;;7.60;99.90;;;;;;4993470;28;20030;-71
2021/01/28 02:53:37;;;;;;;24.30;11.30;;;7.60;99.90;;;;;;4996793;28;20026;-71
2021/01/28 02:56:03;;;;;;;24.25;11.40;;;7.70;99.90;;;;;;5029887;28;20032;-72
2021/01/28 02:58:29;;;;;;;22.90;12.13;;;7.70;99.90;;;;;;5012979;28;20073;-71
2021/01/28 03:00:55;;;;;;;26.05;13.00;;;7.60;99.90;;;;;;5012551;28;20061;-72
2021/01/28 03:03:21;;;;;;;26.08;12.50;;;7.70;99.90;;;;;;4995134;28;20050;-72
2021/01/28 03:05:46;;;;;;;25.05;12.25;;;7.60;99.90;;;;;;5012728;28;20389;-71
2021/01/28 03:08:12;;;;;;;24.58;12.48;;;7.60;99.90;;;;;;5012582;28;20470;-72
2021/01/28 03:10:38;;;;;;;27.70;13.15;;;7.60;99.90;;;;;;5014084;28;20030;-72
2021/01/28 03:13:03;;;;;;;25.10;12.50;;;7.60;99.90;;;;;;5027463;28;20034;-72
2021/01/28 03:15:29;;;;;;;28.30;13.15;;;7.60;99.90;;;;;;5012341;28;20415;-71
2021/01/28 03:17:56;;;;;;;24.92;12.50;;;7.60;99.90;;;;;;5012407;28;20057;-72
2021/01/28 03:20:23;;;;;;;25.83;12.35;;;7.70;99.90;;;;;;5012337;28;20367;-72
2021/01/28 03:22:48;;;;;;;26.10;12.88;;;7.60;99.90;;;;;;5013904;28;20093;-72
2021/01/28 03:25:17;;;;;;;28.33;13.35;;;7.50;99.90;;;;;;5011609;28;20121;-72
2021/01/28 03:27:43;;;;;;;27.85;12.43;;;7.60;99.90;;;;;;4999299;28;20064;-71
2021/01/28 03:30:14;;;;;;;26.90;12.25;;;7.60;99.90;;;;;;5001089;28;20030;-72
2021/01/28 03:32:39;;;;;;;28.50;13.38;;;7.50;99.90;;;;;;5007741;28;20026;-72
2021/01/28 03:35:07;;;;;;;25.17;11.93;;;7.50;99.90;;;;;;4994214;28;20023;-73
2021/01/28 03:37:33;;;;;;;;;;;7.50;99.90;;;;;;4992392;28;20104;-72
2021/01/28 03:39:59;;;;;;;21.42;11.07;;;7.40;99.90;;;;;;4992460;28;20348;-72
2021/01/28 03:42:25;;;;;;;25.60;11.57;;;7.50;99.90;;;;;;4992656;28;20046;-71
2021/01/28 03:44:50;;;;;;;27.83;12.57;;;7.50;99.90;;;;;;4992513;28;20082;-71
2021/01/28 03:47:16;;;;;;;25.58;12.45;;;7.40;99.90;;;;;;4992394;28;20034;-73
2021/01/28 03:49:42;;;;;;;28.17;13.55;;;7.60;99.90;;;;;;4993901;28;20032;-73
2021/01/28 03:52:07;;;;;;;22.88;11.35;;;7.60;99.90;;;;;;4992248;28;20504;-72
2021/01/28 03:54:33;;;;;;;25.60;11.98;;;7.70;99.90;;;;;;4991297;28;20073;-72
2021/01/28 03:56:58;;;;;;;26.75;12.38;;;7.60;99.90;;;;;;4992293;28;20050;-71
2021/01/28 03:59:24;;;;;;;26.27;12.60;;;7.60;99.90;;;;;;4992360;28;20034;-72
2021/01/28 04:01:50;;;;;;;31.10;12.40;;;7.70;99.90;;;;;;4993733;28;20438;-71
2021/01/28 04:04:15;;;;;;;29.05;13.45;;;7.70;99.90;;;;;;4992536;28;20046;-72
2021/01/28 04:06:41;;;;;;;23.40;12.30;;;7.70;99.90;;;;;;4992678;28;20596;-72
2021/01/28 04:09:06;;;;;;;23.58;12.18;;;7.80;99.90;;;;;;5000284;28;20033;-72
2021/01/28 04:11:32;;;;;;;20.83;11.70;;;7.70;99.90;;;;;;5011796;28;20130;-72
2021/01/28 04:13:57;;;;;;;21.60;11.65;;;7.80;99.90;;;;;;5013532;28;20057;-71
2021/01/28 04:16:23;;;;;;;23.30;11.68;;;7.70;99.90;;;;;;5027158;28;20432;-71
2021/01/28 04:18:49;;;;;;;22.15;11.32;;;7.70;99.90;;;;;;5011763;28;20539;-72
2021/01/28 04:21:14;;;;;;;21.25;11.23;;;7.60;99.90;;;;;;5011592;28;20365;-73
2021/01/28 04:23:40;;;;;;;24.08;11.68;;;7.50;99.90;;;;;;5011632;28;20087;-71
2021/01/28 04:26:05;;;;;;;22.10;10.65;;;7.70;99.90;;;;;;5013044;28;20034;-72
2021/01/28 04:28:31;;;;;;;18.42;10.38;;;7.30;99.90;;;;;;5026997;28;20038;-71
2021/01/28 04:30:57;;;;;;;22.30;11.38;;;7.50;99.90;;;;;;5011306;28;20129;-71
2021/01/28 04:33:22;;;;;;;24.02;11.23;;;7.40;99.90;;;;;;5011670;28;20034;-71
2021/01/28 04:35:48;;;;;;;21.85;10.40;;;7.50;99.90;;;;;;5026790;28;20052;-71
2021/01/28 04:38:13;;;;;;;20.15;10.63;;;7.50;99.90;;;;;;5011638;28;20053;-71
2021/01/28 04:40:48;;;;;;;19.35;10.45;;;7.50;99.90;;;;;;5028500;28;20057;-71
2021/01/28 04:43:29;;;;;;;20.23;11.05;;;7.60;99.90;;;;;;5011463;28;20042;-72
2021/01/28 04:45:57;;;;;;;21.52;10.68;;;7.60;99.90;;;;;;5011428;28;20037;-71
2021/01/28 04:48:23;;;;;;;20.63;10.73;;;7.50;99.90;;;;;;5011795;28;20057;-71
2021/01/28 04:50:49;;;;;;;22.92;10.82;;;7.50;99.90;;;;;;5015280;28;20116;-71
2021/01/28 04:53:25;;;;;;;19.33;10.35;;;7.40;99.90;;;;;;5013965;28;20026;-71
2021/01/28 04:55:54;;;;;;;18.80;9.82;;;7.30;99.90;;;;;;5016676;28;20431;-71
2021/01/28 04:58:20;;;;;;;19.92;11.15;;;7.40;99.90;;;;;;5015168;28;20540;-71
2021/01/28 05:00:46;;;;;;;22.05;10.73;;;7.40;99.90;;;;;;5030373;28;20132;-71
2021/01/28 05:03:20;;;;;;;18.05;10.18;;;7.40;99.90;;;;;;5015237;28;20168;-71
2021/01/28 05:05:48;;;;;;;21.25;10.25;;;7.40;99.90;;;;;;5030536;28;20030;-70
2021/01/28 05:08:14;;;;;;;19.45;10.23;;;7.50;99.90;;;;;;5030451;28;20030;-71
2021/01/28 05:10:45;;;;;;;22.20;11.40;;;7.60;99.90;;;;;;5016521;28;20030;-71
2021/01/28 05:13:11;;;;;;;17.58;9.85;;;7.60;99.90;;;;;;5014657;28;20084;-71
2021/01/28 05:15:41;;;;;;;23.05;11.55;;;7.70;99.90;;;;;;5014591;28;20364;-71
2021/01/28 05:18:34;;;;;;;20.80;11.00;;;7.60;99.90;;;;;;5014706;28;20038;-71
2021/01/28 05:21:27;;;;;;;22.85;10.27;;;7.60;99.90;;;;;;5014595;28;20095;-71
2021/01/28 05:24:22;;;;;;;18.73;10.27;;;7.60;99.90;;;;;;5012095;28;20057;-71
2021/01/28 05:26:48;;;;;;;19.40;9.77;;;7.60;99.90;;;;;;5013423;28;20037;-71
2021/01/28 05:29:27;;;;;;;20.05;10.45;;;7.60;99.90;;;;;;5014248;28;20018;-71
2021/01/28 05:31:55;;;;;;;23.73;9.95;;;7.60;99.90;;;;;;5016281;28;20085;-73
2021/01/28 05:34:25;;;;;;;18.35;9.45;;;7.60;99.90;;;;;;5014354;28;20440;-71
2021/01/28 05:37:03;;;;;;;20.88;8.95;;;7.60;99.90;;;;;;5014293;28;20065;-71
2021/01/28 05:39:28;;;;;;;;;;;7.50;99.90;;;;;;5030137;28;20052;-72
2021/01/28 05:42:22;;;;;;;14.43;8.98;;;7.50;99.90;;;;;;5014610;28;19917;-71
2021/01/28 05:44:48;;;;;;;20.23;9.68;;;7.40;99.90;;;;;;5014314;28;20026;-73
2021/01/28 05:47:25;;;;;;;15.27;9.00;;;7.40;99.90;;;;;;5013535;28;20149;-73
2021/01/28 05:49:51;;;;;;;16.50;8.75;;;7.40;99.90;;;;;;5031113;28;20057;-72
2021/01/28 05:52:29;;;;;;;14.07;8.32;;;7.40;99.90;;;;;;5013847;28;20376;-72
2021/01/28 05:55:06;;;;;;;14.57;8.80;;;7.50;99.90;;;;;;5014044;28;20042;-71
2021/01/28 05:57:41;;;;;;;15.88;8.38;;;7.50;99.90;;;;;;5013877;28;20053;-73
2021/01/28 06:00:14;;;;;;;17.27;8.52;;;7.50;99.90;;;;;;5013460;28;20055;-71
2021/01/28 06:03:05;;;;;;;17.60;9.27;;;7.50;99.90;;;;;;5013723;28;20045;-72
2021/01/28 06:05:49;;;;;;;19.73;8.80;;;7.30;99.90;;;;;;5013918;28;20069;-72
2021/01/28 06:08:14;;;;;;;15.95;8.70;;;7.40;99.90;;;;;;5029242;28;20030;-72
2021/01/28 06:11:05;;;;;;;14.60;8.88;;;7.40;99.90;;;;;;5030753;28;20037;-72
2021/01/28 06:13:43;;;;;;;16.05;8.55;;;7.50;99.90;;;;;;5013866;28;20037;-72
2021/01/28 06:16:22;;;;;;;15.05;7.78;;;7.30;99.90;;;;;;5013671;28;20510;-72
2021/01/28 06:18:56;;;;;;;16.63;8.45;;;7.30;99.90;;;;;;5013320;28;20041;-71
2021/01/28 06:21:47;;;;;;;18.15;8.50;;;7.20;99.90;;;;;;5013088;28;20053;-73
2021/01/28 06:24:46;;;;;;;19.40;8.38;;;7.30;99.90;;;;;;5012227;28;20045;-71
2021/01/28 06:27:30;;;;;;;18.77;8.18;;;7.20;99.90;;;;;;5013489;28;20030;-71
2021/01/28 06:30:08;;;;;;;16.38;8.50;;;7.10;99.90;;;;;;5013154;28;20030;-72
2021/01/28 06:32:57;;;;;;;15.23;9.27;;;7.20;99.90;;;;;;5013360;28;20034;-73
2021/01/28 06:35:53;;;;;;;19.45;8.65;;;7.20;99.90;;;;;;5013093;28;20026;-73
2021/01/28 06:38:57;;;;;;;13.75;8.38;;;7.20;99.90;;;;;;5012777;28;20495;-73
2021/01/28 06:41:29;;;;;;;22.58;8.68;;;7.20;99.90;;;;;;5012502;28;20099;-72
2021/01/28 06:44:03;;;;;;;17.60;8.32;;;7.20;99.90;;;;;;5014529;28;20036;-73
2021/01/28 06:46:39;;;;;;;14.20;8.10;;;7.20;99.90;;;;;;5028427;28;20372;-73
2021/01/28 06:49:41;;;;;;;14.55;8.05;;;7.10;99.90;;;;;;5012614;28;20029;-73
2021/01/28 06:52:20;;;;;;;14.48;7.95;;;7.20;99.90;;;;;;5012851;28;20064;-71
2021/01/28 06:54:54;;;;;;;14.05;8.05;;;7.20;99.90;;;;;;5012818;28;20045;-72
2021/01/28 06:57:34;;;;;;;16.75;8.30;;;7.20;99.90;;;;;;5012168;28;20034;-72
2021/01/28 07:00:07;;;;;;;18.10;8.38;;;7.20;99.90;;;;;;5027798;28;20104;-72
2021/01/28 07:02:52;;;;;;;16.17;8.18;;;7.20;99.90;;;;;;5011596;28;20529;-71
2021/01/28 07:05:37;;;;;;;18.23;8.38;;;7.20;99.90;;;;;;5011794;28;20168;-73
2021/01/28 07:08:41;;;;;;;15.45;7.75;;;7.10;99.90;;;;;;5014167;28;20022;-72
2021/01/28 07:11:23;;;;;;;11.30;7.35;;;7.10;99.90;;;;;;4992955;28;20042;-73
2021/01/28 07:13:49;;;;;;;13.63;7.65;;;7.20;99.90;;;;;;5013117;28;20099;-72
2021/01/28 07:16:42;;;;;;;12.98;7.07;;;7.20;99.90;;;;;;5012367;28;20045;-74
2021/01/28 07:19:26;;;;;;;15.05;7.60;;;7.10;99.90;;;;;;5011476;28;20452;-72
2021/01/28 07:21:52;;;;;;;15.50;7.72;;;7.00;99.90;;;;;;4998180;28;20525;-73
2021/01/28 07:24:34;;;;;;;13.35;7.38;;;7.10;99.90;;;;;;5002159;28;20065;-73
2021/01/28 07:27:05;;;;;;;13.18;7.57;;;7.10;99.90;;;;;;5027305;28;20040;-72
2021/01/28 07:29:30;;;;;;;13.52;7.72;;;7.10;99.90;;;;;;5008825;28;20053;-72
2021/01/28 07:32:01;;;;;;;17.45;8.43;;;7.20;99.90;;;;;;4994237;28;20068;-73
2021/01/28 07:34:26;;;;;;;14.02;7.97;;;7.20;99.90;;;;;;4992580;28;20138;-73
2021/01/28 07:37:16;;;;;;;16.38;8.20;;;7.20;99.90;;;;;;5038513;28;20450;-73
2021/01/28 07:39:42;;;;;;;13.98;7.53;;;7.20;99.90;;;;;;5011165;28;20084;-72
2021/01/28 07:42:25;;;;;;;17.52;8.35;;;7.20;99.90;;;;;;5012106;28;20048;-73
2021/01/28 07:44:53;;;;;;;16.92;8.98;;;7.20;99.90;;;;;;5011015;28;20666;-73
2021/01/28 07:47:31;;;;;;;16.77;8.57;;;7.10;99.90;;;;;;5017925;28;20032;-72
2021/01/28 07:50:29;;;;;;;14.50;7.90;;;7.10;99.90;;;;;;5033110;28;20029;-73
2021/01/28 07:52:56;;;;;;;16.30;7.82;;;7.00;99.90;;;;;;5018252;28;20060;-72
2021/01/28 07:55:44;;;;;;;18.25;8.20;;;7.10;99.90;;;;;;5028833;28;20033;-73
2021/01/28 07:58:31;;;;;;;17.98;8.23;;;7.10;99.90;;;;;;5013519;28;20053;-72
2021/01/28 08:01:05;;;;;;;16.17;8.70;;;7.10;99.90;;;;;;5023095;28;20052;-73
2021/01/28 08:03:39;;;;;;;15.95;8.40;;;7.10;99.90;;;;;;5018704;28;20376;-71
2021/01/28 08:06:11;;;;;;;17.08;8.07;;;7.00;99.90;;;;;;5010131;28;20034;-72
2021/01/28 08:08:37;;;;;;;16.48;7.70;;;7.00;99.90;;;;;;5010263;28;20491;-73
2021/01/28 08:11:15;;;;;;;16.48;7.78;;;7.10;99.90;;;;;;5012531;28;20103;-72
2021/01/28 08:13:41;;;;;;;;;;;7.10;99.90;;;;;;5012652;28;20041;-72
2021/01/28 08:16:13;;;;;;;15.95;7.05;;;7.10;99.90;;;;;;5027237;28;20270;-71
2021/01/28 08:18:43;;;;;;;14.48;7.28;;;7.10;99.90;;;;;;5029973;28;20042;-71
2021/01/28 08:21:18;;;;;;;15.90;7.05;;;7.10;99.90;;;;;;5027933;28;20053;-73
2021/01/28 08:23:44;;;;;;;13.07;7.55;;;7.00;99.90;;;;;;5030501;28;20116;-71
2021/01/28 08:26:11;;;;;;;14.75;7.65;;;7.10;99.90;;;;;;5034734;28;20358;-72
2021/01/28 08:28:42;;;;;;;13.43;6.77;;;7.20;99.70;;;;;;5036986;28;20068;-72
2021/01/28 08:31:25;;;;;;;12.32;6.65;;;7.20;99.60;;;;;;5066143;28;20279;-72
2021/01/28 08:34:00;;;;;;;10.93;6.45;;;7.30;99.60;;;;;;5032082;28;20041;-71
2021/01/28 08:36:44;;;;;;;11.77;6.13;;;7.20;99.50;;;;;;5029008;28;20037;-73
2021/01/28 08:39:12;;;;;;;10.70;5.70;;;7.20;99.40;;;;;;5065282;28;20041;-72
2021/01/28 08:41:39;;;;;;;12.52;5.80;;;7.10;99.20;;;;;;5033676;28;20065;-73
2021/01/28 08:44:10;;;;;;;15.00;6.25;;;7.00;99.30;;;;;;5031374;28;20448;-72
2021/01/28 08:46:37;;;;;;;12.23;5.55;;;6.90;99.40;;;;;;5033688;28;20033;-72
2021/01/28 08:49:10;;;;;;;13.43;5.57;;;6.90;99.40;;;;;;5034788;28;20043;-72
2021/01/28 08:51:39;;;;;;;10.18;5.13;;;6.90;99.50;;;;;;5032548;28;20072;-72
2021/01/28 08:54:20;;;;;;;14.65;6.20;;;6.90;99.50;;;;;;5032504;28;20048;-72
2021/01/28 08:56:49;;;;;;;10.32;5.65;;;6.90;99.50;;;;;;5066639;28;20113;-72
2021/01/28 08:59:17;;;;;;;9.63;4.78;;;7.10;99.60;;;;;;5033136;28;20362;-72
2021/01/28 09:01:49;;;;;;;12.50;6.15;;;7.10;99.50;;;;;;5021389;28;20446;-71
2021/01/28 09:04:31;;;;;;;13.32;6.32;;;7.10;99.60;;;;;;5014245;28;20357;-71
2021/01/28 09:06:57;;;;;;;9.98;5.30;;;7.10;99.70;;;;;;5014970;28;20040;-72
2021/01/28 09:09:33;;;;;;;13.20;5.28;;;7.10;99.50;;;;;;5013717;28;20112;-72
2021/01/28 09:12:20;;;;;;;8.90;5.10;;;7.00;99.60;;;;;;5017134;28;20060;-72
2021/01/28 09:14:46;;;;;;;12.35;5.65;;;7.00;99.60;;;;;;5014560;28;20411;-71
2021/01/28 09:17:44;;;;;;;12.35;5.93;;;7.10;99.60;;;;;;5024296;28;20040;-72
2021/01/28 09:20:32;;;;;;;9.85;5.72;;;7.00;99.60;;;;;;5033155;28;20041;-72
2021/01/28 09:23:10;;;;;;;11.65;5.95;;;7.00;99.60;;;;;;5034801;28;20175;-72
2021/01/28 09:25:36;;;;;;;14.30;5.85;;;7.10;99.50;;;;;;5004423;28;20038;-70
2021/01/28 09:28:06;;;;;;;15.13;7.45;;;7.10;99.80;;;;;;5007884;28;20049;-71
2021/01/28 09:30:34;;;;;;;13.00;7.15;;;7.00;99.50;;;;;;5008372;28;20046;-76
2021/01/28 09:33:00;;;;;;;14.50;7.80;;;7.00;99.60;;;;;;5019012;28;20034;-76
2021/01/28 09:35:27;;;;;;;12.98;6.93;;;6.90;99.60;;;;;;5031932;28;20036;-78
2021/01/28 09:38:12;;;;;;;17.58;8.23;;;6.90;99.70;;;;;;5029792;28;20285;-81
2021/01/28 09:40:41;;;;;;;12.65;6.90;;;7.00;99.90;;;;;;5066659;28;20064;-78
2021/01/28 09:43:30;;;;;;;18.00;7.68;;;7.00;99.80;;;;;;5033204;28;20068;-78
2021/01/28 09:46:10;;;;;;;14.40;7.45;;;7.10;99.80;;;;;;5032409;28;20474;-80
2021/01/28 09:48:38;;;;;;;11.50;6.70;;;6.90;99.60;;;;;;5005066;28;20039;-77
2021/01/28 09:51:05;;;;;;;12.53;7.70;;;6.90;99.70;;;;;;5003231;28;20034;-79
2021/01/28 09:53:32;;;;;;;22.63;7.20;;;6.90;99.90;;;;;;5011033;28;20038;-77
2021/01/28 09:55:57;;;;;;;12.48;6.32;;;6.80;99.70;;;;;;5015092;28;20025;-79
2021/01/28 09:58:24;;;;;;;9.27;5.30;;;6.80;99.70;;;;;;5047249;28;20079;-77
2021/01/28 10:00:53;;;;;;;8.93;5.03;;;6.80;99.70;;;;;;5033328;28;20534;-78
2021/01/28 10:03:19;;;;;;;8.75;5.30;;;6.80;99.40;;;;;;5032418;28;20092;-78
2021/01/28 10:05:45;;;;;;;22.48;9.82;;;6.80;99.50;;;;;;5033268;28;20368;-79
2021/01/28 10:08:11;;;;;;;14.07;6.63;;;6.90;99.70;;;;;;5016247;28;20033;-78
2021/01/28 10:10:38;;;;;;;12.73;5.85;;;6.70;99.50;;;;;;5014272;28;20030;-78
2021/01/28 10:13:12;;;;;;;20.42;6.70;;;6.80;99.70;;;;;;5028939;28;20126;-78
2021/01/28 10:15:37;;;;;;;10.45;5.93;;;6.90;99.70;;;;;;5028001;28;20045;-76
2021/01/28 10:18:04;;;;;;;16.23;7.05;;;6.90;99.70;;;;;;5012545;28;20484;-79
2021/01/28 10:20:30;;;;;;;16.52;6.60;;;7.00;99.60;;;;;;5022323;28;20536;-80
2021/01/28 10:23:00;;;;;;;11.77;6.05;;;7.10;99.60;;;;;;5030543;28;20117;-78
2021/01/28 10:25:26;;;;;;;13.77;6.18;;;7.00;99.50;;;;;;5013633;28;20045;-79
2021/01/28 10:27:53;;;;;;;16.23;6.70;;;7.00;99.40;;;;;;5013006;28;20033;-78
2021/01/28 10:30:19;;;;;;;13.65;6.38;;;7.00;99.50;;;;;;5012201;28;20038;-77
2021/01/28 10:32:46;;;;;;;14.43;6.88;;;6.90;99.40;;;;;;5018537;28;20033;-80
2021/01/28 10:35:15;;;;;;;13.95;6.55;;;6.90;99.50;;;;;;5032487;28;20040;-79
2021/01/28 10:37:40;;;;;;;17.13;6.18;;;7.00;99.50;;;;;;5034314;28;20037;-78
2021/01/28 10:40:07;;;;;;;13.73;7.20;;;7.00;99.60;;;;;;5033038;28;20049;-76
2021/01/28 10:42:40;;;;;;;12.13;6.55;;;7.00;99.60;;;;;;5030153;28;20037;-77
2021/01/28 10:45:09;;;;;;;19.63;7.13;;;7.00;99.50;;;;;;5032929;28;20026;-77
2021/01/28 10:47:35;;;;;;;15.93;7.50;;;7.00;99.40;;;;;;5024113;28;20363;-78
2021/01/28 10:50:01;;;;;;;18.15;6.97;;;7.00;99.50;;;;;;5035150;28;20535;-79
2021/01/28 10:52:26;;;;;;;15.88;6.32;;;7.00;99.50;;;;;;5032094;28;20352;-79
2021/01/28 10:54:52;;;;;;;10.63;5.95;;;6.90;99.40;;;;;;5032749;28;20090;-77
2021/01/28 10:57:18;;;;;;;36.38;16.10;;;6.90;99.20;;;;;;5031870;28;20076;-77
2021/01/28 10:59:43;;;;;;;17.42;7.63;;;6.90;99.30;;;;;;5031861;28;20352;-78
2021/01/28 11:02:09;;;;;;;14.98;7.07;;;6.90;99.50;;;;;;5030377;28;20037;-79
2021/01/28 11:04:35;;;;;;;14.18;6.63;;;6.80;99.20;;;;;;5033662;28;20029;-77
2021/01/28 11:07:00;;;;;;;17.67;7.85;;;6.80;99.30;;;;;;5031456;28;20410;-78
2021/01/28 11:09:26;;;;;;;10.65;6.15;;;6.80;99.40;;;;;;5031213;28;20041;-78
2021/01/28 11:11:51;;;;;;;11.68;6.63;;;6.80;99.10;;;;;;5032003;28;20041;-77
2021/01/28 11:14:17;;;;;;;11.27;6.68;;;6.80;99.10;;;;;;5031687;28;20026;-76
2021/01/28 11:16:43;;;;;;;15.70;7.13;;;6.90;99.30;;;;;;5034100;28;20094;-78
2021/01/28 11:19:09;;;;;;;14.23;7.43;;;6.80;99.10;;;;;;5062150;28;20472;-79
2021/01/28 11:21:34;;;;;;;14.32;8.40;;;6.80;99.10;;;;;;5029940;28;20045;-79
2021/01/28 11:24:00;;;;;;;16.35;7.65;;;6.80;99.10;;;;;;5026092;28;20034;-80
2021/01/28 11:26:26;;;;;;;25.92;12.00;;;6.80;99.30;;;;;;5031780;28;20036;-78
2021/01/28 11:28:51;;;;;;;14.52;7.40;;;6.90;99.40;;;;;;5032640;28;20025;-78
2021/01/28 11:31:17;;;;;;;17.95;7.53;;;6.90;99.20;;;;;;5029783;28;20088;-78
2021/01/28 11:33:43;;;;;;;18.85;10.13;;;6.90;99.00;;;;;;5028169;28;20087;-78
2021/01/28 11:36:09;;;;;;;17.63;8.70;;;6.90;99.00;;;;;;5029800;28;20483;-78
2021/01/28 11:38:35;;;;;;;15.48;7.40;;;6.80;99.00;;;;;;5030925;28;20053;-75
2021/01/28 11:41:03;;;;;;;15.73;8.68;;;6.80;99.00;;;;;;5070417;28;20025;-71
2021/01/28 11:43:28;;;;;;;13.40;7.93;;;6.80;99.00;;;;;;5034103;28;20049;-71
2021/01/28 11:45:54;;;;;;;13.82;7.88;;;6.80;99.20;;;;;;5029044;28;20037;-71
2021/01/28 11:48:19;;;;;;;18.60;8.18;;;6.90;99.30;;;;;;5031825;28;20025;-70
2021/01/28 11:50:45;;;;;;;18.15;9.60;;;6.90;99.60;;;;;;5030313;28;20033;-75
2021/01/28 11:53:11;;;;;;;20.35;8.88;;;6.90;99.60;;;;;;5028963;28;20033;-74
2021/01/28 11:55:37;;;;;;;14.07;8.38;;;6.90;99.40;;;;;;5033583;28;20120;-72
2021/01/28 11:58:03;;;;;;;20.33;8.30;;;6.90;99.40;;;;;;5030926;28;20129;-75
2021/01/28 12:00:29;;;;;;;16.83;8.98;;;6.90;99.60;;;;;;5030218;28;20034;-73
2021/01/28 12:02:55;;;;;;;20.17;8.52;;;6.90;99.60;;;;;;5029344;28;20039;-71
2021/01/28 12:05:25;;;;;;;14.27;8.38;;;6.90;99.70;;;;;;5031568;28;20360;-70
2021/01/28 12:07:52;;;;;;;21.52;9.18;;;6.90;99.50;;;;;;5064038;28;20040;-72
2021/01/28 12:10:19;;;;;;;12.47;8.13;;;6.90;99.60;;;;;;5025492;28;20044;-72
2021/01/28 12:12:45;;;;;;;17.73;8.63;;;6.80;99.30;;;;;;5024112;28;20478;-71
2021/01/28 12:15:11;;;;;;;16.05;9.27;;;6.80;99.30;;;;;;5030318;28;20037;-72
2021/01/28 12:17:38;;;;;;;18.05;8.35;;;6.80;99.40;;;;;;5029725;28;20061;-71
2021/01/28 12:20:05;;;;;;;16.60;8.15;;;6.70;99.40;;;;;;5033267;28;20017;-72
2021/01/28 12:22:31;;;;;;;17.75;8.10;;;6.60;99.30;;;;;;5030251;28;20041;-71
2021/01/28 12:24:57;;;;;;;13.43;7.95;;;6.70;99.40;;;;;;5030950;28;20312;-71
2021/01/28 12:27:23;;;;;;;15.13;8.52;;;6.80;99.60;;;;;;5028532;28;20032;-72
2021/01/28 12:29:49;;;;;;;15.65;8.77;;;6.80;99.50;;;;;;5030025;28;20057;-72
2021/01/28 12:32:15;;;;;;;15.30;9.45;;;6.80;99.30;;;;;;5020591;28;20352;-72
2021/01/28 12:34:40;;;;;;;20.83;9.35;;;6.80;99.40;;;;;;5030238;28;20108;-71
2021/01/28 12:37:06;;;;;;;27.15;13.07;;;6.70;99.50;;;;;;5031118;28;20516;-72
2021/01/28 12:39:33;;;;;;;24.60;12.43;;;6.80;99.50;;;;;;5019373;28;20045;-72
2021/01/28 12:42:00;;;;;;;17.45;10.68;;;6.80;99.60;;;;;;5011530;28;20087;-73
2021/01/28 12:44:26;;;;;;;22.40;10.57;;;6.70;99.50;;;;;;5008365;28;20037;-72
2021/01/28 12:46:54;;;;;;;16.60;9.50;;;6.70;99.70;;;;;;4993561;28;20169;-72
2021/01/28 12:49:20;;;;;;;19.95;9.70;;;6.70;99.60;;;;;;5010483;28;20057;-70
2021/01/28 12:51:45;;;;;;;20.67;10.75;;;6.80;99.70;;;;;;5030824;28;20127;-72
2021/01/28 12:54:11;;;;;;;14.93;9.65;;;6.80;99.50;;;;;;5029693;28;20036;-72
2021/01/28 12:56:37;;;;;;;19.45;11.30;;;6.80;99.60;;;;;;5030425;28;20116;-72
2021/01/28 12:59:03;;;;;;;20.42;10.73;;;6.80;99.70;;;;;;5032273;28;20100;-71